Flight Track Log - Related Links

Times and Time Zones

All times are in EDT time to prevent confusion due to time zone crossing. See the N450S flight status page for this flight to view local times or setup timezone preferences in your user account.


Time Position Orientation Groundspeed Altitude Reporting Facility
EDT Latitude Longitude Course Direction KTS MPH feet Rate Location/Type
Wed 07:42:07 AM 41.3358 -82.1953 329° Northwest 128 147 1,200  Level Cleveland Center
Wed 07:43:19 AM 41.3750 -82.2267 329° Northwest 186 214 3,700 1,899 Climbing Cleveland Center
Wed 07:44:26 AM 41.4231 -82.2169 North 187 215 5,600 1,701 Climbing Cleveland Center
Wed 07:45:26 AM 41.4733 -82.2017 13° North 177 204 7,300 1,700 Climbing Cleveland Center
Wed 07:46:26 AM 41.5094 -82.1386 53° Northeast 188 216 9,000 1,700 Climbing Cleveland Center
Wed 07:47:26 AM 41.5461 -82.0619 57° Northeast 200 230 10,700 1,050 Climbing Cleveland Center
Wed 07:48:26 AM 41.5989 -82.0019 40° Northeast 229 264 11,100 200 Climbing Cleveland Center
Wed 07:49:26 AM 41.6622 -81.9394 36° Northeast 265 305 11,100 650 Level Cleveland Center
Wed 07:50:26 AM 41.7233 -81.8794 36° Northeast 284 327 12,400 1,350 Climbing Cleveland Center
Wed 07:51:26 AM 41.7781 -81.8222 38° Northeast 264 304 13,800 1,300 Climbing Cleveland Center
Wed 07:52:26 AM 41.8350 -81.7675 36° Northeast 250 288 15,000 600 Climbing Cleveland Center
Wed 07:53:26 AM 41.8961 -81.7044 38° Northeast 265 305 15,000  Level Cleveland Center
Wed 07:54:26 AM 41.9569 -81.6497 34° Northeast 280 322 15,000  Level Cleveland Center
Wed 07:55:26 AM 42.0264 -81.5811 36° Northeast 299 344 15,000  Level Cleveland Center
Wed 07:56:26 AM 42.0939 -81.5122 37° Northeast 299 344 15,000  Level Cleveland Center
Wed 07:57:26 AM 42.1589 -81.4431 38° Northeast 299 344 15,000  Level Cleveland Center
Wed 07:58:26 AM 42.2283 -81.3739 36° Northeast 299 344 15,000  Level Cleveland Center
Wed 07:59:26 AM 42.2953 -81.3075 36° Northeast 294 338 15,000  Level Cleveland Center
Wed 08:00:26 AM 42.3708 -81.2294 37° Northeast 294 338 15,000  Level Cleveland Center
Wed 08:01:26 AM 42.4378 -81.1628 36° Northeast 299 344 15,000 -50 Level Cleveland Center
Wed 08:02:26 AM 42.5092 -81.0931 36° Northeast 299 344 14,900  Descending Cleveland Center
Wed 08:03:26 AM 42.5761 -81.0231 38° Northeast 299 344 15,000 50 Climbing Cleveland Center
Wed 08:04:26 AM 42.6450 -80.9531 37° Northeast 299 344 15,000 -600 Level Cleveland Center
Wed 08:05:26 AM 42.7142 -80.8800 38° Northeast 299 344 13,800 -1,350 Descending Cleveland Center
Wed 08:06:26 AM 42.7622 -80.7783 57° Northeast 307 353 12,300 -1,300 Descending Cleveland Center
Wed 08:07:26 AM 42.8061 -80.6850 57° Northeast 315 362 11,200 -1,300 Descending Cleveland Center
Wed 08:08:26 AM 42.8644 -80.5775 53° Northeast 317 365 9,700 -1,467 Descending Cleveland Center
Wed 08:09:41 AM 42.9167 -80.4333 64° Northeast 310 357 7,900 -1,440 Descending Toronto Center

Login

Don't have an account? Register now (free) for customized features, flight alerts, and more!